createdAt,value
2023-02-22T00:01:47.213Z,26.90
2023-02-22T00:04:14.094Z,28.85
2023-02-22T00:06:40.610Z,27.65
2023-02-22T00:09:09.266Z,31.35
2023-02-22T00:11:39.779Z,29.63
2023-02-22T00:14:06.340Z,29.83
2023-02-22T00:16:32.900Z,26.00
2023-02-22T00:18:59.617Z,29.77
2023-02-22T00:21:26.123Z,25.52
2023-02-22T00:23:54.567Z,28.73
2023-02-22T00:26:23.245Z,27.90
2023-02-22T00:28:52.616Z,33.47
2023-02-22T00:31:20.536Z,25.50
2023-02-22T00:33:49.498Z,26.73
2023-02-22T00:36:17.176Z,26.27
2023-02-22T00:39:09.566Z,27.88
2023-02-22T00:41:36.131Z,30.30
2023-02-22T00:44:28.542Z,23.40
2023-02-22T00:46:55.121Z,29.58
2023-02-22T00:49:21.910Z,32.15
2023-02-22T00:51:50.764Z,24.83
2023-02-22T00:54:19.922Z,25.83
2023-02-22T00:56:46.884Z,21.35
2023-02-22T00:59:13.529Z,23.40
2023-02-22T01:01:40.185Z,25.58
2023-02-22T01:04:10.637Z,28.27
2023-02-22T01:06:38.549Z,22.80
2023-02-22T01:09:07.620Z,26.85
2023-02-22T01:11:34.395Z,25.80
2023-02-22T01:14:01.330Z,27.15
2023-02-22T01:16:28.918Z,24.38
2023-02-22T01:18:55.494Z,22.98
2023-02-22T01:21:22.085Z,24.77
2023-02-22T01:23:49.808Z,22.88
2023-02-22T01:26:16.336Z,23.02
2023-02-22T01:28:42.933Z,24.45
2023-02-22T01:31:10.360Z,29.00
2023-02-22T01:33:37.111Z,25.73
2023-02-22T01:36:11.201Z,24.50
2023-02-22T01:38:38.970Z,23.60
2023-02-22T01:41:05.973Z,26.58
2023-02-22T01:43:33.481Z,23.83
2023-02-22T01:46:06.230Z,25.13
2023-02-22T01:48:36.282Z,26.95
2023-02-22T01:51:20.389Z,23.42
2023-02-22T01:53:56.993Z,24.83
2023-02-22T01:56:26.776Z,23.65
2023-02-22T01:58:59.571Z,27.92
2023-02-22T02:01:26.903Z,25.15
2023-02-22T02:03:58.256Z,27.38
2023-02-22T02:06:26.938Z,30.10
2023-02-22T02:09:14.739Z,24.23
2023-02-22T02:11:42.028Z,23.33
2023-02-22T02:14:10.200Z,27.95
2023-02-22T02:16:51.207Z,25.35
2023-02-22T02:19:39.571Z,21.73
2023-02-22T02:22:20.861Z,21.35
2023-02-22T02:25:27.841Z,25.70
2023-02-22T02:28:13.320Z,23.00
2023-02-22T02:31:10.973Z,20.83
2023-02-22T02:33:47.820Z,30.40
2023-02-22T02:36:44.368Z,28.80
2023-02-22T02:39:39.812Z,25.42
2023-02-22T02:42:10.126Z,26.35
2023-02-22T02:44:55.543Z,27.55
2023-02-22T02:47:28.837Z,23.60
2023-02-22T02:52:34.668Z,25.65
2023-02-22T02:55:09.070Z,25.25
2023-02-22T02:57:35.592Z,28.80
2023-02-22T03:00:02.138Z,28.92
2023-02-22T03:02:45.928Z,26.88
2023-02-22T03:05:43.727Z,24.95
2023-02-22T03:08:19.446Z,30.90
2023-02-22T03:11:16.891Z,26.95
2023-02-22T03:13:56.338Z,30.67
2023-02-22T03:16:38.117Z,33.80
2023-02-22T03:19:21.785Z,28.13
2023-02-22T03:22:10.299Z,25.80
2023-02-22T03:24:58.923Z,28.98
2023-02-22T03:27:37.083Z,29.23
2023-02-22T03:30:12.271Z,23.35
2023-02-22T03:32:42.677Z,27.02
2023-02-22T03:35:18.042Z,30.05
2023-02-22T03:37:48.229Z,27.60
2023-02-22T03:40:28.054Z,25.80
2023-02-22T03:43:04.679Z,31.05
2023-02-22T03:45:34.718Z,24.45
2023-02-22T03:48:31.460Z,25.20
2023-02-22T03:51:04.294Z,23.10
2023-02-22T03:53:34.506Z,25.42
2023-02-22T03:56:05.434Z,27.77
2023-02-22T03:58:36.580Z,27.90
2023-02-22T04:01:03.857Z,27.25
2023-02-22T04:03:31.035Z,27.33
2023-02-22T04:05:58.112Z,25.60
2023-02-22T04:08:24.709Z,26.10
2023-02-22T04:10:52.404Z,27.98
2023-02-22T04:13:22.108Z,25.80
2023-02-22T04:15:50.490Z,23.48
2023-02-22T04:18:17.440Z,23.92
2023-02-22T04:20:46.321Z,23.35
2023-02-22T04:23:21.233Z,25.63
2023-02-22T04:25:48.630Z,23.77
2023-02-22T04:28:17.011Z,23.58
2023-02-22T04:30:52.339Z,29.80
2023-02-22T04:33:19.737Z,24.13
2023-02-22T04:35:46.765Z,25.13
2023-02-22T04:38:14.250Z,24.15
2023-02-22T04:40:41.228Z,23.65
2023-02-22T04:43:09.033Z,22.98
2023-02-22T04:45:35.974Z,27.85
2023-02-22T04:48:04.235Z,24.70
2023-02-22T04:50:30.830Z,24.35
2023-02-22T04:52:57.452Z,25.60
2023-02-22T04:55:25.149Z,23.70
2023-02-22T04:57:51.693Z,25.02
2023-02-22T05:00:21.456Z,22.63
2023-02-22T05:02:49.734Z,24.90
2023-02-22T05:05:24.246Z,25.40
2023-02-22T05:08:42.621Z,24.98
2023-02-22T05:11:09.664Z,28.70
2023-02-22T05:13:36.279Z,29.20
2023-02-22T05:16:04.226Z,26.52
2023-02-22T05:18:30.863Z,25.73
2023-02-22T05:20:57.360Z,25.75
2023-02-22T05:23:25.559Z,20.70
2023-02-22T05:25:52.065Z,30.17
2023-02-22T05:28:19.742Z,29.77
2023-02-22T05:30:46.424Z,26.17
2023-02-22T05:33:13.184Z,26.60
2023-02-22T05:35:40.080Z,19.85
2023-02-22T05:38:07.442Z,21.92
2023-02-22T05:40:34.068Z,23.30
2023-02-22T05:43:02.609Z,27.55
2023-02-22T05:45:29.789Z,23.10
2023-02-22T05:47:57.188Z,30.38
2023-02-22T05:50:24.990Z,27.05
2023-02-22T05:52:56.361Z,25.13
2023-02-22T05:55:24.835Z,25.38
2023-02-22T05:57:52.299Z,26.13
2023-02-22T06:00:27.560Z,24.00
2023-02-22T06:02:59.813Z,30.70
2023-02-22T06:05:27.126Z,36.22
2023-02-22T06:07:54.827Z,31.20
2023-02-22T06:10:22.169Z,30.20
2023-02-22T06:12:50.734Z,27.08
2023-02-22T06:15:19.268Z,26.77
2023-02-22T06:17:46.008Z,24.65
2023-02-22T06:20:15.768Z,27.63
2023-02-22T06:22:44.640Z,30.40
2023-02-22T06:25:14.741Z,22.33
2023-02-22T06:27:44.512Z,21.95
2023-02-22T06:30:13.470Z,24.05
2023-02-22T06:32:40.507Z,21.48
2023-02-22T06:35:07.758Z,23.08
2023-02-22T06:37:34.449Z,22.00
2023-02-22T06:40:05.567Z,21.98
2023-02-22T06:42:32.909Z,29.52
2023-02-22T06:45:00.835Z,28.88
2023-02-22T06:47:27.444Z,30.98
2023-02-22T06:49:55.243Z,31.20
2023-02-22T06:52:22.704Z,29.95
2023-02-22T06:54:50.635Z,28.55
2023-02-22T06:57:18.041Z,25.73
2023-02-22T06:59:44.867Z,33.78
2023-02-22T07:02:12.338Z,25.20
2023-02-22T07:04:39.220Z,29.35
2023-02-22T07:07:06.761Z,25.45
2023-02-22T07:09:33.335Z,29.27
2023-02-22T07:11:59.932Z,28.38
2023-02-22T07:14:26.442Z,32.95
2023-02-22T07:16:52.978Z,23.70
2023-02-22T07:19:19.547Z,32.80
2023-02-22T07:21:47.840Z,29.52
2023-02-22T07:24:14.570Z,26.95
2023-02-22T07:26:42.456Z,33.28
2023-02-22T07:29:11.138Z,28.55
2023-02-22T07:31:38.724Z,32.95
2023-02-22T07:34:05.627Z,28.40
2023-02-22T07:36:32.225Z,30.25
2023-02-22T07:38:58.759Z,30.00
2023-02-22T07:41:26.075Z,29.92
2023-02-22T07:43:52.598Z,32.38
2023-02-22T07:46:19.212Z,30.40
2023-02-22T07:48:45.979Z,28.45
2023-02-22T07:51:15.916Z,29.02
2023-02-22T07:53:42.573Z,31.42
2023-02-22T07:56:09.151Z,30.75
2023-02-22T07:58:35.769Z,33.65
2023-02-22T08:01:02.483Z,31.60
2023-02-22T08:03:36.226Z,29.05
2023-02-22T08:06:03.603Z,35.05
2023-02-22T08:08:30.203Z,33.13
2023-02-22T08:10:57.114Z,25.98
2023-02-22T08:13:24.171Z,30.73
2023-02-22T08:15:53.661Z,30.63
2023-02-22T08:18:21.250Z,33.80
2023-02-22T08:20:51.806Z,31.80
2023-02-22T08:23:20.043Z,28.08
2023-02-22T08:25:46.590Z,31.92
2023-02-22T08:28:16.468Z,27.85
2023-02-22T08:30:43.688Z,29.83
2023-02-22T08:33:14.366Z,31.40
2023-02-22T08:35:42.047Z,27.15
2023-02-22T08:38:16.629Z,27.15
2023-02-22T08:40:43.211Z,27.70
2023-02-22T08:43:09.802Z,27.25
2023-02-22T08:45:36.407Z,27.08
2023-02-22T08:48:03.846Z,29.92
2023-02-22T08:50:35.604Z,29.00
2023-02-22T08:53:04.694Z,31.00
2023-02-22T08:55:34.438Z,25.83
2023-02-22T08:58:02.960Z,24.17
2023-02-22T09:00:32.920Z,23.67
2023-02-22T09:03:01.394Z,28.02
2023-02-22T09:05:31.140Z,25.90
2023-02-22T09:07:58.874Z,20.95
2023-02-22T09:10:28.543Z,19.65
2023-02-22T09:12:55.681Z,26.48
2023-02-22T09:15:24.002Z,24.02
2023-02-22T09:17:51.348Z,23.65
2023-02-22T09:20:20.097Z,25.98
2023-02-22T09:22:48.335Z,27.17
2023-02-22T09:25:17.226Z,24.00
2023-02-22T09:27:47.771Z,29.67
2023-02-22T09:30:24.821Z,23.35
2023-02-22T09:32:55.754Z,24.40
2023-02-22T09:35:27.629Z,25.25
2023-02-22T09:37:58.469Z,20.13
2023-02-22T09:40:29.843Z,22.90
2023-02-22T09:43:18.718Z,24.95
2023-02-22T09:46:21.392Z,24.20
2023-02-22T09:49:13.865Z,25.63
2023-02-22T09:51:45.507Z,25.13
2023-02-22T09:54:24.963Z,19.83
2023-02-22T09:56:55.934Z,22.23
2023-02-22T09:59:28.554Z,24.45
2023-02-22T10:02:22.112Z,24.23
2023-02-22T10:05:08.252Z,26.63
2023-02-22T10:07:44.351Z,25.90
2023-02-22T10:10:18.118Z,22.77
2023-02-22T10:13:15.346Z,21.60
2023-02-22T10:15:48.247Z,24.52
2023-02-22T10:18:40.069Z,19.45
2023-02-22T10:21:25.440Z,23.55
2023-02-22T10:24:10.506Z,23.50
2023-02-22T10:26:42.318Z,25.33
2023-02-22T10:29:29.030Z,18.15
2023-02-22T10:32:02.951Z,22.40
2023-02-22T10:34:37.811Z,22.60
2023-02-22T10:37:27.779Z,24.08
2023-02-22T10:40:11.443Z,20.33
2023-02-22T10:42:38.184Z,21.27
2023-02-22T10:45:06.624Z,20.88
2023-02-22T10:47:34.070Z,21.17
2023-02-22T10:50:01.466Z,22.25
2023-02-22T10:52:31.455Z,23.50
2023-02-22T10:55:14.090Z,22.80
2023-02-22T10:57:45.890Z,19.88
2023-02-22T11:00:19.602Z,22.38
2023-02-22T11:02:56.123Z,21.25
2023-02-22T11:05:38.611Z,21.42
2023-02-22T11:08:27.974Z,22.58
2023-02-22T11:11:03.285Z,15.88
2023-02-22T11:13:39.208Z,19.10
2023-02-22T11:16:40.534Z,19.00
2023-02-22T11:19:16.161Z,22.33
2023-02-22T11:21:43.483Z,19.25
2023-02-22T11:24:13.180Z,22.98
2023-02-22T11:26:49.840Z,19.13
2023-02-22T11:29:25.889Z,21.52
2023-02-22T11:31:54.287Z,19.92
2023-02-22T11:34:42.648Z,20.63
2023-02-22T11:37:22.249Z,22.25
2023-02-22T11:40:04.309Z,19.52
2023-02-22T11:42:30.975Z,23.45
2023-02-22T11:45:21.139Z,16.92
2023-02-22T11:47:54.856Z,17.40
2023-02-22T11:50:46.419Z,19.90
2023-02-22T11:53:29.185Z,20.77
2023-02-22T11:56:35.648Z,20.70
2023-02-22T11:59:36.481Z,22.63
2023-02-22T12:02:30.917Z,21.42
2023-02-22T12:05:26.671Z,22.48
2023-02-22T12:08:19.702Z,21.17
2023-02-22T12:10:55.286Z,21.58
2023-02-22T12:13:36.764Z,20.80
2023-02-22T12:16:34.783Z,18.65
2023-02-22T12:19:26.821Z,20.58
2023-02-22T12:21:59.244Z,21.77
2023-02-22T12:24:34.239Z,22.23
2023-02-22T12:27:06.766Z,33.15
2023-02-22T12:29:47.044Z,28.48
2023-02-22T12:32:26.289Z,19.20
2023-02-22T12:35:11.268Z,22.40
2023-02-22T12:37:51.038Z,22.45
2023-02-22T12:40:30.628Z,23.10
2023-02-22T12:43:04.576Z,20.02
2023-02-22T12:45:44.643Z,21.10
2023-02-22T12:48:31.891Z,18.98
2023-02-22T12:51:17.289Z,19.02
2023-02-22T12:53:55.524Z,18.35
2023-02-22T12:56:41.325Z,21.95
2023-02-22T12:59:29.197Z,22.08
2023-02-22T13:02:10.073Z,18.17
2023-02-22T13:04:36.844Z,18.50
2023-02-22T13:07:28.255Z,16.50
2023-02-22T13:10:39.453Z,16.05
2023-02-22T13:13:31.447Z,14.95
2023-02-22T13:16:16.078Z,13.10
2023-02-22T13:18:53.997Z,17.33
2023-02-22T13:21:33.596Z,16.55
2023-02-22T13:24:12.454Z,14.68
2023-02-22T13:26:56.342Z,11.88
2023-02-22T13:29:38.427Z,14.45
2023-02-22T13:32:18.857Z,13.10
2023-02-22T13:34:56.698Z,15.48
2023-02-22T13:37:38.572Z,12.93
2023-02-22T13:40:43.690Z,13.70
2023-02-22T13:43:35.061Z,13.23
2023-02-22T13:46:17.955Z,15.82
2023-02-22T13:48:59.994Z,11.38
2023-02-22T13:51:41.688Z,13.18
2023-02-22T13:54:18.024Z,12.30
2023-02-22T13:56:47.961Z,14.70
2023-02-22T13:59:36.130Z,15.52
2023-02-22T14:02:06.824Z,13.77
2023-02-22T14:04:39.195Z,15.32
2023-02-22T14:07:26.218Z,12.07
